Terminal Aerodrome Forecast
Issued by NWS

Home | Current Version | Previous Version | Text Only | Print | Product List | Glossary On
Versions: 1 2 3 4 5 6 7 8 9 10 11 12 13 14
000
FTUS43 KTOP 311100
TAFFOE
TAF
KFOE 311122Z 3112/0112 35016G24KT P6SM BKN024
     FM311300 36016G28KT P6SM SKC
     FM312000 01010KT P6SM SKC
     FM010000 03003KT P6SM SKC=

USA.gov is the U.S. government's official web portal to all federal, state and local government web resources and services.